sensor_id;sensor_type;location;lat;lon;timestamp;pressure;altitude;pressure_sealevel;temperature;humidity
19576;BME280;41589;51.196;7.074;2023-02-24T00:03:25;98799.25;;;6.97;100.00
19576;BME280;41589;51.196;7.074;2023-02-24T00:08:26;98800.31;;;6.74;100.00
19576;BME280;41589;51.196;7.074;2023-02-24T00:13:28;98793.91;;;6.74;100.00
19576;BME280;41589;51.196;7.074;2023-02-24T00:18:28;98797.91;;;6.47;100.00
19576;BME280;41589;51.196;7.074;2023-02-24T00:23:29;98787.16;;;6.46;100.00
19576;BME280;41589;51.196;7.074;2023-02-24T00:28:30;98761.38;;;6.67;100.00
19576;BME280;41589;51.196;7.074;2023-02-24T00:33:31;98764.38;;;6.60;100.00
19576;BME280;41589;51.196;7.074;2023-02-24T00:38:32;98765.41;;;6.66;100.00
19576;BME280;41589;51.196;7.074;2023-02-24T00:43:35;98753.63;;;6.58;100.00
19576;BME280;41589;51.196;7.074;2023-02-24T00:48:37;98752.19;;;6.66;100.00
19576;BME280;41589;51.196;7.074;2023-02-24T00:53:39;98731.16;;;6.75;100.00
19576;BME280;41589;51.196;7.074;2023-02-24T00:58:40;98728.34;;;6.49;100.00
19576;BME280;41589;51.196;7.074;2023-02-24T01:03:43;98720.19;;;6.55;100.00
19576;BME280;41589;51.196;7.074;2023-02-24T01:08:44;98713.72;;;6.29;100.00
19576;BME280;41589;51.196;7.074;2023-02-24T01:13:47;98705.06;;;6.39;100.00
19576;BME280;41589;51.196;7.074;2023-02-24T01:18:47;98707.41;;;6.41;100.00
19576;BME280;41589;51.196;7.074;2023-02-24T01:23:49;98698.00;;;6.35;100.00
19576;BME280;41589;51.196;7.074;2023-02-24T01:28:49;98700.25;;;6.40;100.00
19576;BME280;41589;51.196;7.074;2023-02-24T01:33:51;98699.69;;;6.45;100.00
19576;BME280;41589;51.196;7.074;2023-02-24T01:38:51;98696.00;;;6.48;100.00
19576;BME280;41589;51.196;7.074;2023-02-24T01:49:04;98689.06;;;6.40;100.00
19576;BME280;41589;51.196;7.074;2023-02-24T01:54:12;98681.28;;;6.31;100.00
19576;BME280;41589;51.196;7.074;2023-02-24T01:59:14;98671.13;;;6.25;100.00
19576;BME280;41589;51.196;7.074;2023-02-24T02:04:27;98674.31;;;6.10;100.00
19576;BME280;41589;51.196;7.074;2023-02-24T02:09:33;98669.75;;;6.17;100.00
19576;BME280;41589;51.196;7.074;2023-02-24T02:14:36;98670.03;;;5.93;100.00
19576;BME280;41589;51.196;7.074;2023-02-24T02:19:48;98669.19;;;5.80;100.00
19576;BME280;41589;51.196;7.074;2023-02-24T02:25:07;98654.44;;;5.79;100.00
19576;BME280;41589;51.196;7.074;2023-02-24T02:35:38;98652.63;;;5.44;100.00
19576;BME280;41589;51.196;7.074;2023-02-24T02:41:00;98645.06;;;5.28;100.00
19576;BME280;41589;51.196;7.074;2023-02-24T02:51:32;98619.59;;;5.42;100.00
19576;BME280;41589;51.196;7.074;2023-02-24T02:56:42;98601.91;;;5.62;100.00
19576;BME280;41589;51.196;7.074;2023-02-24T03:01:45;98603.69;;;5.68;100.00
19576;BME280;41589;51.196;7.074;2023-02-24T03:06:51;98587.84;;;5.78;100.00
19576;BME280;41589;51.196;7.074;2023-02-24T03:11:56;98588.72;;;5.62;100.00
19576;BME280;41589;51.196;7.074;2023-02-24T03:16:59;98573.53;;;5.63;100.00
19576;BME280;41589;51.196;7.074;2023-02-24T03:27:12;98579.94;;;5.76;100.00
19576;BME280;41589;51.196;7.074;2023-02-24T03:32:31;98566.94;;;5.70;100.00
19576;BME280;41589;51.196;7.074;2023-02-24T03:37:35;98563.94;;;5.64;100.00
19576;BME280;41589;51.196;7.074;2023-02-24T03:42:39;98567.22;;;5.46;100.00
19576;BME280;41589;51.196;7.074;2023-02-24T03:47:41;98567.13;;;5.50;100.00
19576;BME280;41589;51.196;7.074;2023-02-24T03:52:57;98566.75;;;5.35;100.00
19576;BME280;41589;51.196;7.074;2023-02-24T04:03:19;98556.88;;;5.02;100.00
19576;BME280;41589;51.196;7.074;2023-02-24T04:08:26;98565.75;;;5.13;100.00
19576;BME280;41589;51.196;7.074;2023-02-24T04:13:34;98564.19;;;5.12;100.00
19576;BME280;41589;51.196;7.074;2023-02-24T04:25:08;98562.81;;;5.04;100.00
19576;BME280;41589;51.196;7.074;2023-02-24T04:30:13;98551.97;;;5.22;100.00
19576;BME280;41589;51.196;7.074;2023-02-24T04:35:18;98543.66;;;5.18;100.00
19576;BME280;41589;51.196;7.074;2023-02-24T04:40:22;98534.59;;;5.31;100.00
19576;BME280;41589;51.196;7.074;2023-02-24T04:45:28;98533.91;;;5.39;100.00
19576;BME280;41589;51.196;7.074;2023-02-24T04:50:33;98529.56;;;5.38;100.00
19576;BME280;41589;51.196;7.074;2023-02-24T04:55:36;98525.44;;;5.30;100.00
19576;BME280;41589;51.196;7.074;2023-02-24T05:00:39;98522.19;;;5.32;100.00
19576;BME280;41589;51.196;7.074;2023-02-24T05:05:51;98519.09;;;5.42;100.00
19576;BME280;41589;51.196;7.074;2023-02-24T05:10:52;98505.13;;;5.42;100.00
19576;BME280;41589;51.196;7.074;2023-02-24T05:15:58;98512.78;;;5.26;100.00
19576;BME280;41589;51.196;7.074;2023-02-24T05:21:06;98493.50;;;5.31;100.00
19576;BME280;41589;51.196;7.074;2023-02-24T05:26:26;98494.50;;;5.37;100.00
19576;BME280;41589;51.196;7.074;2023-02-24T05:31:29;98491.38;;;5.35;100.00
19576;BME280;41589;51.196;7.074;2023-02-24T05:36:38;98493.28;;;5.38;100.00
19576;BME280;41589;51.196;7.074;2023-02-24T05:41:41;98487.56;;;5.29;100.00
19576;BME280;41589;51.196;7.074;2023-02-24T05:46:43;98484.25;;;5.34;100.00
19576;BME280;41589;51.196;7.074;2023-02-24T05:51:44;98469.72;;;5.39;100.00
19576;BME280;41589;51.196;7.074;2023-02-24T05:56:54;98466.50;;;5.41;100.00
19576;BME280;41589;51.196;7.074;2023-02-24T06:02:17;98471.72;;;5.39;100.00
19576;BME280;41589;51.196;7.074;2023-02-24T06:07:27;98449.19;;;5.33;100.00
19576;BME280;41589;51.196;7.074;2023-02-24T06:12:30;98454.19;;;5.26;100.00
19576;BME280;41589;51.196;7.074;2023-02-24T06:17:32;98447.03;;;5.24;100.00
19576;BME280;41589;51.196;7.074;2023-02-24T06:22:33;98439.91;;;5.36;100.00
19576;BME280;41589;51.196;7.074;2023-02-24T06:27:41;98439.72;;;5.43;100.00
19576;BME280;41589;51.196;7.074;2023-02-24T06:32:43;98435.44;;;5.39;100.00
19576;BME280;41589;51.196;7.074;2023-02-24T06:37:44;98432.22;;;5.40;100.00
19576;BME280;41589;51.196;7.074;2023-02-24T06:42:49;98437.56;;;5.35;100.00
19576;BME280;41589;51.196;7.074;2023-02-24T06:47:53;98427.94;;;5.23;100.00
19576;BME280;41589;51.196;7.074;2023-02-24T06:52:56;98431.50;;;5.11;100.00
19576;BME280;41589;51.196;7.074;2023-02-24T06:58:00;98429.81;;;5.13;100.00
19576;BME280;41589;51.196;7.074;2023-02-24T07:03:09;98422.56;;;5.16;100.00
19576;BME280;41589;51.196;7.074;2023-02-24T07:08:17;98430.16;;;5.15;100.00
19576;BME280;41589;51.196;7.074;2023-02-24T07:13:18;98438.09;;;5.17;100.00
19576;BME280;41589;51.196;7.074;2023-02-24T07:18:18;98417.44;;;5.14;100.00
19576;BME280;41589;51.196;7.074;2023-02-24T07:23:18;98424.50;;;5.32;100.00
19576;BME280;41589;51.196;7.074;2023-02-24T07:28:20;98423.50;;;5.38;100.00
19576;BME280;41589;51.196;7.074;2023-02-24T07:33:22;98409.34;;;5.45;100.00
19576;BME280;41589;51.196;7.074;2023-02-24T07:38:22;98402.41;;;5.37;100.00
19576;BME280;41589;51.196;7.074;2023-02-24T07:43:22;98386.34;;;5.41;100.00
19576;BME280;41589;51.196;7.074;2023-02-24T07:48:23;98384.53;;;5.35;100.00
19576;BME280;41589;51.196;7.074;2023-02-24T07:53:24;98376.28;;;5.31;100.00
19576;BME280;41589;51.196;7.074;2023-02-24T07:58:27;98369.47;;;5.32;100.00
19576;BME280;41589;51.196;7.074;2023-02-24T08:03:27;98356.75;;;5.31;100.00
19576;BME280;41589;51.196;7.074;2023-02-24T08:08:29;98360.31;;;5.32;100.00
19576;BME280;41589;51.196;7.074;2023-02-24T08:13:29;98353.63;;;5.42;100.00
19576;BME280;41589;51.196;7.074;2023-02-24T08:18:36;98355.84;;;5.34;100.00
19576;BME280;41589;51.196;7.074;2023-02-24T08:23:39;98344.47;;;5.29;100.00
19576;BME280;41589;51.196;7.074;2023-02-24T08:28:43;98331.84;;;5.11;100.00
19576;BME280;41589;51.196;7.074;2023-02-24T08:33:44;98324.91;;;5.16;100.00
19576;BME280;41589;51.196;7.074;2023-02-24T08:38:44;98320.03;;;5.20;100.00
19576;BME280;41589;51.196;7.074;2023-02-24T08:43:51;98318.22;;;5.26;100.00
19576;BME280;41589;51.196;7.074;2023-02-24T08:48:56;98308.19;;;5.16;100.00
19576;BME280;41589;51.196;7.074;2023-02-24T08:54:05;98303.94;;;5.11;100.00
19576;BME280;41589;51.196;7.074;2023-02-24T08:59:12;98304.41;;;5.10;100.00
19576;BME280;41589;51.196;7.074;2023-02-24T09:04:28;98292.56;;;5.06;100.00
19576;BME280;41589;51.196;7.074;2023-02-24T09:09:28;98292.66;;;5.15;100.00
19576;BME280;41589;51.196;7.074;2023-02-24T09:14:31;98278.41;;;5.13;100.00
19576;BME280;41589;51.196;7.074;2023-02-24T09:19:40;98273.81;;;5.06;100.00
19576;BME280;41589;51.196;7.074;2023-02-24T09:24:47;98272.25;;;5.18;100.00
19576;BME280;41589;51.196;7.074;2023-02-24T09:29:50;98269.13;;;5.29;100.00
19576;BME280;41589;51.196;7.074;2023-02-24T09:34:50;98264.78;;;5.15;100.00
19576;BME280;41589;51.196;7.074;2023-02-24T09:39:52;98257.97;;;5.16;100.00
19576;BME280;41589;51.196;7.074;2023-02-24T09:45:03;98253.50;;;5.18;100.00
19576;BME280;41589;51.196;7.074;2023-02-24T09:50:20;98248.78;;;5.28;100.00
19576;BME280;41589;51.196;7.074;2023-02-24T09:55:50;98240.22;;;5.22;100.00
19576;BME280;41589;51.196;7.074;2023-02-24T10:01:17;98233.66;;;5.04;100.00
19576;BME280;41589;51.196;7.074;2023-02-24T10:06:27;98230.41;;;5.05;100.00
19576;BME280;41589;51.196;7.074;2023-02-24T10:11:34;98219.94;;;5.09;100.00
19576;BME280;41589;51.196;7.074;2023-02-24T10:16:39;98231.44;;;4.99;100.00
19576;BME280;41589;51.196;7.074;2023-02-24T10:21:47;98212.34;;;5.10;100.00
19576;BME280;41589;51.196;7.074;2023-02-24T10:27:10;98212.88;;;5.30;100.00
19576;BME280;41589;51.196;7.074;2023-02-24T10:32:21;98203.41;;;5.15;100.00
19576;BME280;41589;51.196;7.074;2023-02-24T10:37:28;98187.78;;;5.05;100.00
19576;BME280;41589;51.196;7.074;2023-02-24T10:42:33;98189.81;;;5.04;100.00
19576;BME280;41589;51.196;7.074;2023-02-24T10:47:33;98175.97;;;5.01;100.00
19576;BME280;41589;51.196;7.074;2023-02-24T10:52:36;98169.94;;;5.02;100.00
19576;BME280;41589;51.196;7.074;2023-02-24T10:58:30;98166.50;;;4.85;100.00
19576;BME280;41589;51.196;7.074;2023-02-24T11:03:39;98169.41;;;4.82;100.00
19576;BME280;41589;51.196;7.074;2023-02-24T11:08:56;98158.47;;;5.00;100.00
19576;BME280;41589;51.196;7.074;2023-02-24T11:14:14;98157.03;;;4.83;100.00
19576;BME280;41589;51.196;7.074;2023-02-24T11:19:53;98129.94;;;4.71;100.00
19576;BME280;41589;51.196;7.074;2023-02-24T11:24:54;98124.81;;;4.69;100.00
19576;BME280;41589;51.196;7.074;2023-02-24T11:30:11;98117.44;;;4.62;100.00
19576;BME280;41589;51.196;7.074;2023-02-24T11:35:20;98108.88;;;4.70;100.00
19576;BME280;41589;51.196;7.074;2023-02-24T11:40:25;98091.78;;;4.55;100.00
19576;BME280;41589;51.196;7.074;2023-02-24T11:45:39;98095.16;;;4.50;100.00
19576;BME280;41589;51.196;7.074;2023-02-24T11:50:55;98072.88;;;4.50;100.00
19576;BME280;41589;51.196;7.074;2023-02-24T11:56:24;98063.16;;;4.54;100.00
19576;BME280;41589;51.196;7.074;2023-02-24T12:01:49;98053.56;;;4.55;100.00
19576;BME280;41589;51.196;7.074;2023-02-24T12:12:23;98034.84;;;4.43;100.00
19576;BME280;41589;51.196;7.074;2023-02-24T12:23:21;98026.19;;;4.28;100.00
19576;BME280;41589;51.196;7.074;2023-02-24T12:34:54;98010.88;;;4.46;100.00
19576;BME280;41589;51.196;7.074;2023-02-24T12:51:49;97997.41;;;4.31;100.00
19576;BME280;41589;51.196;7.074;2023-02-24T12:57:10;97988.97;;;4.22;100.00
19576;BME280;41589;51.196;7.074;2023-02-24T13:02:58;97977.25;;;4.40;100.00
19576;BME280;41589;51.196;7.074;2023-02-24T13:18:50;97941.22;;;4.46;100.00
19576;BME280;41589;51.196;7.074;2023-02-24T13:23:55;97942.69;;;4.38;100.00
19576;BME280;41589;51.196;7.074;2023-02-24T13:29:07;97933.75;;;4.43;100.00
19576;BME280;41589;51.196;7.074;2023-02-24T13:40:29;97931.66;;;4.47;100.00
19576;BME280;41589;51.196;7.074;2023-02-24T13:51:13;97901.56;;;4.42;100.00
19576;BME280;41589;51.196;7.074;2023-02-24T14:01:50;97894.66;;;4.33;100.00
19576;BME280;41589;51.196;7.074;2023-02-24T14:07:02;97885.28;;;4.40;100.00
19576;BME280;41589;51.196;7.074;2023-02-24T14:12:13;97889.31;;;4.39;100.00
19576;BME280;41589;51.196;7.074;2023-02-24T14:17:23;97888.13;;;4.27;100.00
19576;BME280;41589;51.196;7.074;2023-02-24T14:22:27;97870.81;;;4.32;100.00
19576;BME280;41589;51.196;7.074;2023-02-24T14:27:28;97873.50;;;4.36;100.00
19576;BME280;41589;51.196;7.074;2023-02-24T14:32:28;97862.69;;;4.38;100.00
19576;BME280;41589;51.196;7.074;2023-02-24T14:37:33;97859.75;;;4.42;100.00
19576;BME280;41589;51.196;7.074;2023-02-24T14:42:34;97854.00;;;4.36;100.00
19576;BME280;41589;51.196;7.074;2023-02-24T14:47:39;97857.47;;;4.27;100.00
19576;BME280;41589;51.196;7.074;2023-02-24T14:52:44;97840.84;;;4.36;100.00
19576;BME280;41589;51.196;7.074;2023-02-24T15:03:02;97841.41;;;4.53;100.00
19576;BME280;41589;51.196;7.074;2023-02-24T15:08:03;97842.88;;;4.58;100.00
19576;BME280;41589;51.196;7.074;2023-02-24T15:19:43;97808.19;;;4.59;100.00
19576;BME280;41589;51.196;7.074;2023-02-24T15:30:31;97791.63;;;4.64;100.00
19576;BME280;41589;51.196;7.074;2023-02-24T15:36:37;97790.75;;;4.68;100.00
19576;BME280;41589;51.196;7.074;2023-02-24T15:41:19;97778.28;;;4.81;100.00
19576;BME280;41589;51.196;7.074;2023-02-24T15:56:35;97771.81;;;4.93;100.00
19576;BME280;41589;51.196;7.074;2023-02-24T16:01:35;97754.50;;;4.99;100.00
19576;BME280;41589;51.196;7.074;2023-02-24T16:06:44;97738.88;;;5.01;100.00
19576;BME280;41589;51.196;7.074;2023-02-24T16:11:53;97742.25;;;4.96;100.00
19576;BME280;41589;51.196;7.074;2023-02-24T16:16:54;97751.06;;;4.94;100.00
19576;BME280;41589;51.196;7.074;2023-02-24T16:21:55;97742.28;;;5.05;100.00
19576;BME280;41589;51.196;7.074;2023-02-24T16:26:55;97745.06;;;5.05;100.00
19576;BME280;41589;51.196;7.074;2023-02-24T16:31:56;97730.84;;;5.12;100.00
19576;BME280;41589;51.196;7.074;2023-02-24T16:36:59;97731.00;;;5.18;100.00
19576;BME280;41589;51.196;7.074;2023-02-24T16:41:59;97740.31;;;5.15;100.00
19576;BME280;41589;51.196;7.074;2023-02-24T16:47:06;97746.09;;;5.30;100.00
19576;BME280;41589;51.196;7.074;2023-02-24T16:52:07;97755.41;;;5.36;100.00
19576;BME280;41589;51.196;7.074;2023-02-24T16:57:10;97747.03;;;5.36;100.00
19576;BME280;41589;51.196;7.074;2023-02-24T17:02:17;97751.41;;;5.46;100.00
19576;BME280;41589;51.196;7.074;2023-02-24T17:07:19;97765.50;;;5.33;100.00
19576;BME280;41589;51.196;7.074;2023-02-24T17:12:20;97763.00;;;5.35;100.00
19576;BME280;41589;51.196;7.074;2023-02-24T17:17:21;97758.47;;;5.19;100.00
19576;BME280;41589;51.196;7.074;2023-02-24T17:22:21;97748.81;;;5.11;100.00
19576;BME280;41589;51.196;7.074;2023-02-24T17:27:22;97751.31;;;5.18;100.00
19576;BME280;41589;51.196;7.074;2023-02-24T17:32:22;97746.09;;;5.30;100.00
19576;BME280;41589;51.196;7.074;2023-02-24T17:37:23;97751.56;;;5.42;100.00
19576;BME280;41589;51.196;7.074;2023-02-24T17:42:23;97759.31;;;5.47;100.00
19576;BME280;41589;51.196;7.074;2023-02-24T17:47:23;97761.22;;;5.50;100.00
19576;BME280;41589;51.196;7.074;2023-02-24T17:52:24;97769.56;;;5.50;100.00
19576;BME280;41589;51.196;7.074;2023-02-24T17:57:24;97770.81;;;5.59;100.00
19576;BME280;41589;51.196;7.074;2023-02-24T18:02:26;97772.69;;;5.71;100.00
19576;BME280;41589;51.196;7.074;2023-02-24T18:07:27;97763.25;;;5.77;100.00
19576;BME280;41589;51.196;7.074;2023-02-24T18:12:27;97755.19;;;5.89;100.00
19576;BME280;41589;51.196;7.074;2023-02-24T18:17:28;97776.16;;;5.84;100.00
19576;BME280;41589;51.196;7.074;2023-02-24T18:22:29;97769.31;;;5.76;100.00
19576;BME280;41589;51.196;7.074;2023-02-24T18:27:29;97765.53;;;5.61;100.00
19576;BME280;41589;51.196;7.074;2023-02-24T18:32:30;97784.63;;;5.13;100.00
19576;BME280;41589;51.196;7.074;2023-02-24T18:37:30;97770.44;;;4.98;100.00
19576;BME280;41589;51.196;7.074;2023-02-24T18:42:41;97774.66;;;5.03;100.00
19576;BME280;41589;51.196;7.074;2023-02-24T18:47:53;97763.72;;;5.17;100.00
19576;BME280;41589;51.196;7.074;2023-02-24T18:52:53;97773.22;;;5.29;100.00
19576;BME280;41589;51.196;7.074;2023-02-24T18:57:58;97761.94;;;5.42;100.00
19576;BME280;41589;51.196;7.074;2023-02-24T19:02:58;97801.91;;;5.39;100.00
19576;BME280;41589;51.196;7.074;2023-02-24T19:07:58;97820.69;;;5.07;100.00
19576;BME280;41589;51.196;7.074;2023-02-24T19:13:01;97813.53;;;4.75;100.00
19576;BME280;41589;51.196;7.074;2023-02-24T19:18:02;97818.03;;;4.51;100.00
19576;BME280;41589;51.196;7.074;2023-02-24T19:23:11;97815.72;;;4.49;100.00
19576;BME280;41589;51.196;7.074;2023-02-24T19:28:12;97827.56;;;4.41;100.00
19576;BME280;41589;51.196;7.074;2023-02-24T19:33:12;97815.63;;;4.40;100.00
19576;BME280;41589;51.196;7.074;2023-02-24T19:38:16;97828.47;;;4.38;100.00
19576;BME280;41589;51.196;7.074;2023-02-24T19:43:17;97830.03;;;4.39;100.00
19576;BME280;41589;51.196;7.074;2023-02-24T19:48:17;97837.28;;;4.58;100.00
19576;BME280;41589;51.196;7.074;2023-02-24T19:53:20;97834.50;;;4.58;100.00
19576;BME280;41589;51.196;7.074;2023-02-24T19:58:20;97839.81;;;4.65;100.00
19576;BME280;41589;51.196;7.074;2023-02-24T20:03:20;97833.34;;;4.68;100.00
19576;BME280;41589;51.196;7.074;2023-02-24T20:08:21;97845.00;;;4.76;100.00
19576;BME280;41589;51.196;7.074;2023-02-24T20:13:22;97836.50;;;4.79;100.00
19576;BME280;41589;51.196;7.074;2023-02-24T20:18:22;97852.19;;;4.86;100.00
19576;BME280;41589;51.196;7.074;2023-02-24T20:23:23;97860.75;;;4.70;100.00
19576;BME280;41589;51.196;7.074;2023-02-24T20:28:23;97860.16;;;4.75;100.00
19576;BME280;41589;51.196;7.074;2023-02-24T20:33:26;97855.88;;;4.83;100.00
19576;BME280;41589;51.196;7.074;2023-02-24T20:38:26;97866.84;;;4.77;100.00
19576;BME280;41589;51.196;7.074;2023-02-24T20:43:28;97876.38;;;4.67;100.00
19576;BME280;41589;51.196;7.074;2023-02-24T20:48:28;97871.50;;;4.58;100.00
19576;BME280;41589;51.196;7.074;2023-02-24T20:53:29;97872.53;;;4.52;100.00
19576;BME280;41589;51.196;7.074;2023-02-24T20:58:30;97867.56;;;4.47;100.00
19576;BME280;41589;51.196;7.074;2023-02-24T21:03:30;97877.25;;;4.42;100.00
19576;BME280;41589;51.196;7.074;2023-02-24T21:08:31;97884.50;;;4.40;100.00
19576;BME280;41589;51.196;7.074;2023-02-24T21:13:32;97879.19;;;4.32;100.00
19576;BME280;41589;51.196;7.074;2023-02-24T21:18:32;97884.66;;;4.36;100.00
19576;BME280;41589;51.196;7.074;2023-02-24T21:23:34;97887.78;;;4.25;100.00
19576;BME280;41589;51.196;7.074;2023-02-24T21:28:36;97881.97;;;4.32;100.00
19576;BME280;41589;51.196;7.074;2023-02-24T21:33:37;97893.09;;;4.32;100.00
19576;BME280;41589;51.196;7.074;2023-02-24T21:38:39;97882.63;;;4.36;100.00
19576;BME280;41589;51.196;7.074;2023-02-24T21:43:43;97891.50;;;4.44;100.00
19576;BME280;41589;51.196;7.074;2023-02-24T21:48:43;97883.53;;;4.55;100.00
19576;BME280;41589;51.196;7.074;2023-02-24T21:53:44;97885.44;;;4.58;100.00
19576;BME280;41589;51.196;7.074;2023-02-24T21:58:52;97893.59;;;4.53;100.00
19576;BME280;41589;51.196;7.074;2023-02-24T22:03:54;97902.03;;;4.62;100.00
19576;BME280;41589;51.196;7.074;2023-02-24T22:08:55;97898.16;;;4.59;100.00
19576;BME280;41589;51.196;7.074;2023-02-24T22:13:56;97907.53;;;4.53;100.00
19576;BME280;41589;51.196;7.074;2023-02-24T22:18:58;97905.78;;;4.46;100.00
19576;BME280;41589;51.196;7.074;2023-02-24T22:24:00;97895.28;;;4.50;100.00
19576;BME280;41589;51.196;7.074;2023-02-24T22:29:01;97899.09;;;4.44;100.00
19576;BME280;41589;51.196;7.074;2023-02-24T22:34:02;97890.72;;;4.44;100.00
19576;BME280;41589;51.196;7.074;2023-02-24T22:39:04;97906.38;;;4.28;100.00
19576;BME280;41589;51.196;7.074;2023-02-24T22:44:05;97921.75;;;4.33;100.00
19576;BME280;41589;51.196;7.074;2023-02-24T22:49:06;97909.09;;;4.19;100.00
19576;BME280;41589;51.196;7.074;2023-02-24T22:54:07;97913.19;;;4.15;100.00
19576;BME280;41589;51.196;7.074;2023-02-24T22:59:08;97921.00;;;4.20;100.00
19576;BME280;41589;51.196;7.074;2023-02-24T23:04:14;97926.34;;;4.14;100.00
19576;BME280;41589;51.196;7.074;2023-02-24T23:09:15;97915.22;;;4.14;100.00
19576;BME280;41589;51.196;7.074;2023-02-24T23:14:25;97926.16;;;3.96;100.00
19576;BME280;41589;51.196;7.074;2023-02-24T23:19:26;97928.94;;;4.08;100.00
19576;BME280;41589;51.196;7.074;2023-02-24T23:24:27;97945.19;;;4.10;100.00
19576;BME280;41589;51.196;7.074;2023-02-24T23:29:27;97952.88;;;4.19;100.00
19576;BME280;41589;51.196;7.074;2023-02-24T23:34:30;97951.53;;;4.11;100.00
19576;BME280;41589;51.196;7.074;2023-02-24T23:39:30;97957.34;;;4.03;100.00
19576;BME280;41589;51.196;7.074;2023-02-24T23:44:35;97951.53;;;4.11;100.00
19576;BME280;41589;51.196;7.074;2023-02-24T23:49:35;97969.47;;;4.10;100.00
19576;BME280;41589;51.196;7.074;2023-02-24T23:54:36;97960.22;;;4.13;100.00
19576;BME280;41589;51.196;7.074;2023-02-24T23:59:37;97955.44;;;4.13;100.00
